Latest Weather Observations for Dunalley

IDT60801

Issued at 10:01 pm EST Wednesday 5 August 2015 (issued every 30 minutes, with the page automatically refreshed every 10 minutes)

About weather observations | Map of weather stations | Latest weather observations for TAS | Other Formats
Station Details ID: 094254 Name: DUNALLEY (STROUD POINT) Lat: -42.90 Lon: 147.79 Height: 12.43 m
Data from the previous 72 hours. | See also: Recent months at Dunalley
Date/Time
EST
Temp
°C
App
Temp
°C
Dew
Point
Rel
Hum
%
Delta-T
°C
Wind Press
QNH
hPa
Press
MSL
hPa
Rain
since 9 am
mm
Dir
 
Spd
km/h
Gust
km/h
Spd
kts
Gust
kts
05/10:00pm 5.3 -4.2 1.6 77 1.5 W 41 48 22 26 1005.9 1005.9 0.0
05/09:30pm 5.5 -4.7 1.2 74 1.7 WSW 44 54 24 29 1005.8 1005.8 0.0
05/09:00pm 5.4 -4.8 0.8 72 1.8 W 44 52 24 28 1005.2 1005.2 0.0
05/08:30pm 5.4 -4.8 0.8 72 1.8 W 44 52 24 28 1005.1 1005.1 0.0
05/08:00pm 5.5 -4.5 1.1 73 1.7 WSW 43 50 23 27 1005.0 1005.0 0.0
05/07:30pm 5.2 -3.6 1.3 76 1.5 W 37 44 20 24 1004.7 1004.7 0.0
05/07:00pm 5.6 -4.0 1.3 74 1.7 WSW 41 46 22 25 1004.6 1004.6 0.0
05/06:30pm 5.5 -4.1 1.1 73 1.7 W 41 54 22 29 1004.1 1004.1 0.0
05/06:00pm 5.2 -3.7 0.8 73 1.7 W 37 46 20 25 1003.8 1003.8 0.0
05/05:30pm 5.5 -3.7 1.1 73 1.7 W 39 46 21 25 1003.3 1003.3 0.0
05/05:00pm 5.4 -3.0 1.5 76 1.6 W 35 43 19 23 1003.0 1003.0 0.0
05/04:30pm 5.6 -2.8 1.7 76 1.6 W 35 43 19 23 1002.8 1002.8 0.0
05/04:00pm 5.9 -4.6 1.2 72 1.9 W 46 61 25 33 1002.5 1002.5 0.0
05/03:30pm 5.9 -2.6 1.1 71 1.9 W 35 46 19 25 1002.2 1002.2 0.0
05/03:00pm 6.3 -3.3 1.2 70 2.0 W 41 50 22 27 1002.1 1002.1 0.0
05/02:30pm 6.3 -3.0 0.6 67 2.2 W 39 46 21 25 1001.5 1001.5 0.0
05/02:00pm 6.1 -3.8 1.8 74 1.7 WSW 43 50 23 27 1001.2 1001.2 0.0
05/01:30pm 6.2 -3.4 0.9 69 2.1 W 41 48 22 26 1001.1 1001.1 0.0
05/01:00pm 6.1 -3.1 1.2 71 2.0 W 39 44 21 24 1001.4 1001.4 0.0
05/12:30pm 5.6 -3.1 2.1 78 1.4 WSW 37 52 20 28 1001.8 1001.8 0.0
05/12:00pm 6.4 -4.6 0.9 68 2.2 W 48 57 26 31 1001.6 1001.6 0.0
05/11:42am 6.0 -3.4 0.1 66 2.3 W 39 57 21 31 1001.4 1001.4 0.0
05/11:30am 5.9 -3.4 0.9 70 2.0 WSW 39 46 21 25 1001.6 1001.6 0.0
05/11:00am 6.2 -4.3 1.3 71 2.0 WSW 46 56 25 30 1001.6 1001.6 0.0
05/10:30am 6.1 -4.1 1.1 70 2.0 WSW 44 54 24 29 1001.5 1001.5 0.0
05/10:09am 6.4 -2.7 -0.3 62 2.6 W 37 56 20 30 1001.3 1001.3 0.0
05/10:00am 6.1 -1.7 -0.6 62 2.6 W 30 43 16 23 1001.4 1001.4 0.0
05/09:30am 5.7 -3.0 -0.8 63 2.4 W 35 43 19 23 1001.1 1001.1 0.0
05/09:00am 5.0 -2.5 -1.4 63 2.4 W 28 39 15 21 1001.3 1001.3 1.0
05/08:30am 4.5 -2.7 -2.1 62 2.4 W 26 39 14 21 1001.4 1001.4 1.0
05/08:00am 3.7 -3.6 -2.5 64 2.2 WNW 26 39 14 21 1001.1 1001.1 1.0
05/07:30am 3.3 -3.6 -2.8 64 2.1 WNW 24 32 13 17 1000.9 1000.9 1.0
05/07:00am 3.1 -3.4 -2.2 68 1.9 WNW 22 33 12 18 1000.6 1000.6 1.0
05/06:30am 3.8 -6.6 -0.6 73 1.6 W 44 57 24 31 1000.2 1000.2 1.0
05/06:00am 4.2 -8.1 -0.2 73 1.7 W 54 67 29 36 999.6 999.6 1.0
05/05:30am 4.3 -7.3 -1.1 68 2.0 W 50 63 27 34 999.4 999.4 1.0
05/05:00am 4.0 -7.5 -0.4 73 1.7 W 50 65 27 35 999.1 999.1 1.0
05/04:52am 4.2 -6.2 -0.6 71 1.8 W 44 65 24 35 999.0 999.0 1.0
05/04:30am 4.0 -7.9 -0.2 74 1.6 WSW 52 61 28 33 998.6 998.6 1.0
05/04:00am 4.6 -7.2 0.6 75 1.6 WSW 52 63 28 34 998.3 998.3 1.0
05/03:30am 4.5 -6.2 0.3 74 1.6 WSW 46 57 25 31 998.0 998.0 1.0
05/03:09am 3.9 -8.7 1.3 83 1.0 WSW 57 78 31 42 998.1 998.1 1.0
05/03:00am 4.6 -8.5 0.4 74 1.6 WSW 59 76 32 41 997.7 997.7 1.0
05/02:54am 4.9 -7.0 -0.1 70 1.9 WSW 52 76 28 41 997.6 997.6 1.0
05/02:30am 5.4 -4.7 0.6 71 1.9 W 43 54 23 29 997.6 997.6 1.0
05/02:00am 5.5 -5.1 0.9 72 1.8 WSW 46 56 25 30 997.2 997.2 1.0
05/01:30am 5.7 -5.1 2.2 78 1.4 W 48 61 26 33 997.1 997.1 1.0
05/01:00am 6.1 -4.7 2.0 75 1.7 W 48 57 26 31 996.8 996.8 1.0
05/12:41am 6.2 -3.7 1.9 74 1.7 W 43 65 23 35 996.2 996.2 1.0
05/12:37am 6.0 -1.3 2.5 78 1.4 WNW 30 61 16 33 996.6 996.6 1.0
05/12:30am 6.0 -1.4 2.1 76 1.6 WNW 30 41 16 22 996.6 996.6 1.0
05/12:00am 6.1 -1.0 1.6 73 1.8 NW 28 44 15 24 996.3 996.3 1.0
 
Date/Time
EST
Temp
°C
App
Temp
°C
Dew
Point
Rel
Hum
%
Delta-T
°C
Wind Press
QNH
hPa
Press
MSL
hPa
Rain
since 9 am
mm
Dir
 
Spd
km/h
Gust
km/h
Spd
kts
Gust
kts
04/11:30pm 6.4 -1.4 1.9 73 1.8 WNW 32 48 17 26 996.4 996.4 1.0
04/11:09pm 7.0 -1.0 1.5 68 2.2 WNW 33 54 18 29 996.3 996.3 1.0
04/11:00pm 6.9 -0.5 1.6 69 2.2 WNW 30 41 16 22 996.6 996.6 1.0
04/10:30pm 6.7 -0.4 1.6 70 2.1 NW 28 39 15 21 996.6 996.6 1.0
04/10:00pm 6.8 0.1 1.5 69 2.2 NW 26 37 14 20 996.5 996.5 1.0
04/09:30pm 6.8 0.7 2.5 74 1.8 WNW 24 33 13 18 997.4 997.4 1.0
04/09:00pm 7.0 -0.7 2.3 72 2.0 WNW 32 43 17 23 997.9 997.9 1.0
04/08:30pm 7.0 0.7 4.0 81 1.3 WNW 26 37 14 20 998.2 998.2 1.0
04/08:00pm 7.7 0.7 4.3 79 1.5 WNW 30 44 16 24 998.3 998.3 0.2
04/07:30pm 9.1 1.9 3.1 66 2.6 WNW 30 48 16 26 998.6 998.6 0.0
04/07:00pm 9.6 1.9 2.5 61 3.0 WNW 32 48 17 26 998.8 998.8 0.0
04/06:57pm 9.6 2.6 2.2 60 3.1 WNW 28 48 15 26 998.8 998.8 0.0
04/06:30pm 9.8 1.8 1.9 58 3.3 NW 33 44 18 24 998.8 998.8 0.0
04/06:00pm 9.6 1.3 2.0 59 3.2 WNW 35 56 19 30 999.1 999.1 0.0
04/05:34pm 9.8 1.8 1.9 58 3.3 WNW 33 54 18 29 999.3 999.3 0.0
04/05:30pm 9.9 2.1 2.0 58 3.3 WNW 32 50 17 27 999.2 999.2 0.0
04/05:05pm 10.0 0.9 1.9 57 3.4 NW 39 59 21 32 999.7 999.7 0.0
04/05:00pm 10.0 1.7 1.9 57 3.4 NW 35 50 19 27 999.8 999.8 0.0
04/04:31pm 10.3 2.4 2.2 57 3.4 WNW 33 54 18 29 1000.7 1000.7 0.0
04/04:30pm 10.3 2.0 2.2 57 3.4 WNW 35 54 19 29 1000.7 1000.7 0.0
04/04:00pm 10.4 2.1 2.0 56 3.6 NW 35 56 19 30 1001.3 1001.3 0.0
04/03:35pm 11.3 1.9 2.3 54 3.9 WNW 41 61 22 33 1002.0 1002.0 0.0
04/03:30pm 11.2 1.2 2.2 54 3.8 WNW 44 61 24 33 1002.0 1002.0 0.0
04/03:00pm 11.6 3.7 2.4 53 4.0 WNW 33 56 18 30 1002.5 1002.5 0.0
04/02:34pm 10.9 3.0 2.2 55 3.7 WNW 33 52 18 28 1002.8 1002.8 0.0
04/02:30pm 10.8 2.9 2.4 56 3.6 WNW 33 50 18 27 1002.8 1002.8 0.0
04/02:08pm 10.8 2.2 2.4 56 3.6 WNW 37 56 20 30 1003.3 1003.3 0.0
04/02:00pm 10.8 1.4 2.1 55 3.7 WNW 41 57 22 31 1003.5 1003.5 0.0
04/01:30pm 10.8 1.7 1.6 53 3.9 WNW 39 59 21 32 1004.0 1004.0 0.0
04/01:13pm 11.1 2.8 1.9 53 3.9 NW 35 56 19 30 1004.6 1004.6 0.0
04/01:00pm 10.9 2.6 2.0 54 3.8 WNW 35 50 19 27 1005.2 1005.2 0.0
04/12:31pm 10.9 2.5 1.7 53 3.9 NW 35 57 19 31 1005.9 1005.9 0.0
04/12:30pm 11.0 3.0 1.8 53 3.9 NW 33 50 18 27 1006.0 1006.0 0.0
04/12:06pm 9.6 2.5 1.5 57 3.4 WNW 28 46 15 25 1006.8 1006.8 0.0
04/12:00pm 9.4 3.5 1.6 58 3.2 WNW 22 33 12 18 1007.1 1007.1 0.0
04/11:30am 9.3 2.6 1.5 58 3.2 WNW 26 44 14 24 1008.3 1008.3 0.0
04/11:00am 9.4 2.7 1.6 58 3.2 NW 26 41 14 22 1008.9 1008.9 0.0
04/10:30am 8.7 4.4 1.1 59 3.1 N 13 28 7 15 1009.4 1009.4 0.0
04/10:00am 7.6 3.6 0.3 60 2.9 NNW 11 26 6 14 1010.0 1010.0 0.0
04/09:30am 7.2 3.5 0.0 60 2.8 NW 9 20 5 11 1010.7 1010.7 0.0
04/09:00am 6.8 2.3 -0.2 61 2.7 NW 13 20 7 11 1011.5 1011.5 4.2
04/08:30am 6.3 0.7 -0.2 63 2.5 NW 19 24 10 13 1011.6 1011.6 4.2
04/08:00am 6.2 0.0 -0.5 62 2.6 NW 22 35 12 19 1011.7 1011.7 4.2
04/07:58am 6.1 0.3 -0.4 63 2.5 NW 20 35 11 19 1011.7 1011.7 4.2
04/07:30am 5.6 2.1 -1.3 61 2.6 NNW 7 15 4 8 1012.0 1012.0 4.2
04/07:00am 5.7 -0.3 -1.2 61 2.6 NW 20 32 11 17 1011.9 1011.9 4.2
04/06:30am 5.4 -0.6 -1.3 62 2.5 NW 20 30 11 16 1012.4 1012.4 4.2
04/06:00am 5.2 -0.6 -1.3 63 2.4 NW 19 32 10 17 1012.6 1012.6 4.2
04/05:30am 4.4 0.1 -1.8 64 2.2 NNW 11 20 6 11 1012.9 1012.9 4.2
04/05:00am 5.1 0.0 -1.8 61 2.5 NW 15 28 8 15 1013.1 1013.1 4.2
04/04:30am 4.3 -2.1 -1.5 66 2.1 NW 22 32 12 17 1013.3 1013.4 4.2
04/04:00am 4.4 -1.6 -1.4 66 2.1 NW 20 30 11 16 1013.5 1013.6 4.2
04/03:30am 4.2 -1.6 -1.6 66 2.1 NW 19 28 10 15 1013.7 1013.8 4.2
04/03:00am 4.2 -1.6 -1.4 67 2.0 NW 19 28 10 15 1014.1 1014.2 4.2
04/02:30am 4.3 -1.1 -1.1 68 2.0 NW 17 26 9 14 1014.7 1014.8 4.2
04/02:00am 4.3 -1.1 -1.3 67 2.0 NW 17 24 9 13 1015.1 1015.2 4.2
04/01:30am 4.4 -1.0 -1.4 66 2.1 NW 17 24 9 13 1015.3 1015.4 4.2
04/01:00am 3.9 -2.0 -1.1 70 1.8 NW 20 28 11 15 1015.4 1015.5 4.2
04/12:30am 4.0 -1.9 -1.0 70 1.8 NW 20 32 11 17 1015.8 1015.9 4.2
04/12:00am 4.0 -2.3 -1.0 70 1.8 NW 22 32 12 17 1016.0 1016.1 4.2
 
Date/Time
EST
Temp
°C
App
Temp
°C
Dew
Point
Rel
Hum
%
Delta-T
°C
Wind Press
QNH
hPa
Press
MSL
hPa
Rain
since 9 am
mm
Dir
 
Spd
km/h
Gust
km/h
Spd
kts
Gust
kts
03/11:30pm 3.9 -2.7 -0.7 72 1.7 NW 24 28 13 15 1016.1 1016.2 4.2
03/11:00pm 4.1 -2.1 -0.5 72 1.7 NW 22 32 12 17 1016.1 1016.2 4.2
03/10:30pm 4.3 -1.5 -0.1 73 1.7 WNW 20 28 11 15 1016.1 1016.2 4.2
03/10:00pm 4.0 -1.6 0.2 76 1.4 NW 19 26 10 14 1016.0 1016.1 4.2
03/09:30pm 5.5 -2.3 1.6 76 1.6 W 32 35 17 19 1015.6 1015.7 4.2
03/09:00pm 5.0 -1.6 2.0 81 1.2 W 26 37 14 20 1015.5 1015.6 4.2
03/08:30pm 4.2 -2.1 1.4 82 1.1 W 24 35 13 19 1015.3 1015.4 4.2
03/08:00pm 5.2 -2.1 2.4 82 1.1 WSW 30 35 16 19 1014.5 1014.6 4.2
03/07:30pm 5.2 -3.3 2.9 85 0.9 WSW 37 44 20 24 1013.9 1014.0 4.2
03/07:00pm 5.3 -5.3 3.3 87 0.8 W 48 57 26 31 1013.4 1013.5 4.0
03/06:30pm 5.2 -4.5 2.7 84 1.0 W 43 54 23 29 1012.9 1012.9 3.6
03/06:14pm 5.5 -4.3 3.3 86 0.9 WSW 44 63 24 34 1012.4 1012.4 3.6
03/06:00pm 6.0 -4.6 3.2 82 1.2 WSW 48 57 26 31 1012.0 1012.0 3.6
03/05:30pm 6.2 -2.7 3.2 81 1.3 SW 39 48 21 26 1011.4 1011.4 3.4
03/05:00pm 6.1 -3.8 2.7 79 1.4 WSW 44 54 24 29 1010.3 1010.3 3.2
03/04:40pm 4.8 -6.2 3.0 88 0.7 WSW 50 65 27 35 1009.4 1009.4 3.2
03/04:30pm 5.6 -4.5 3.9 89 0.7 WSW 46 56 25 30 1008.7 1008.7 2.8
03/04:00pm 4.8 -6.2 3.1 89 0.7 W 50 61 27 33 1007.9 1007.9 2.0
03/03:30pm 5.4 -6.0 2.8 83 1.1 W 52 65 28 35 1007.0 1007.0 1.4
03/03:19pm 5.3 -4.4 2.8 84 1.0 W 43 63 23 34 1006.7 1006.7 1.4
03/03:00pm 4.5 -5.8 2.8 89 0.7 W 46 57 25 31 1006.4 1006.4 1.0
03/02:30pm 4.4 -6.3 2.6 88 0.7 W 48 59 26 32 1006.1 1006.1 0.6
03/02:00pm 5.1 -7.3 2.6 84 1.0 W 57 67 31 36 1004.8 1004.8 0.2
03/01:30pm 6.5 -3.6 1.6 71 2.0 W 44 57 24 31 1003.9 1003.9 0.0
03/01:00pm 6.0 -2.9 1.0 70 2.0 W 37 48 20 26 1003.8 1003.8 0.0
03/12:30pm 5.2 -2.4 0.4 71 1.8 WNW 30 43 16 23 1003.3 1003.3 0.0
03/12:00pm 5.2 -3.0 0.2 70 1.9 W 33 44 18 24 1002.8 1002.8 0.0
03/11:41am 5.2 -4.1 0.6 72 1.8 W 39 54 21 29 1002.5 1002.5 0.0
03/11:30am 4.6 -6.3 1.5 80 1.2 W 48 61 26 33 1002.4 1002.4 0.0
03/11:13am 4.6 -6.0 0.7 76 1.5 W 46 67 25 36 1001.8 1001.8 0.0
03/11:07am 5.5 -3.5 0.3 69 2.0 W 37 57 20 31 1001.8 1001.8 0.0
03/11:00am 5.7 -3.0 -0.4 65 2.3 W 35 46 19 25 1001.9 1001.9 0.0
03/10:30am 5.0 -3.7 -0.4 68 2.0 W 35 50 19 27 1001.4 1001.4 0.0
03/10:17am 5.3 -2.0 -0.1 68 2.1 W 28 48 15 26 1001.0 1001.0 0.0
03/10:00am 4.3 -2.6 -0.1 73 1.7 WNW 26 39 14 21 1000.8 1000.8 0.0
03/09:30am 3.7 -3.3 -0.7 73 1.6 WNW 26 39 14 21 1000.7 1000.7 0.0
03/09:00am 3.1 -5.3 -0.7 76 1.4 NW 33 44 18 24 1000.2 1000.2 3.4
03/08:30am 2.2 -4.9 -0.9 80 1.1 NW 26 35 14 19 1000.0 1000.0 3.4
03/08:00am 1.8 -3.5 -0.8 83 0.9 WNW 17 32 9 17 999.7 999.7 3.4
03/07:30am 1.1 -3.4 -0.1 92 0.4 WNW 13 24 7 13 999.1 999.1 3.2
03/07:00am 1.3 -7.3 0.3 93 0.4 WSW 35 50 19 27 998.4 998.4 3.2
03/06:52am 1.8 -6.4 0.3 90 0.6 WSW 33 50 18 27 999.0 999.0 2.8
03/06:30am 1.7 -4.5 -0.4 86 0.8 W 22 30 12 16 998.2 998.2 2.6
03/06:00am 1.9 -6.3 0.4 90 0.6 W 33 46 18 25 997.0 997.0 2.6
03/05:30am 2.2 -3.6 -0.2 84 0.9 WNW 20 32 11 17 997.0 997.0 2.4
03/05:00am 2.5 -3.3 0.2 85 0.9 WNW 20 30 11 16 996.2 996.2 2.4
03/04:30am 2.8 -4.7 1.0 88 0.7 W 30 41 16 22 996.5 996.5 2.4
03/04:00am 3.9 -3.7 0.8 80 1.2 W 30 37 16 20 995.8 995.8 2.0
03/03:30am 3.5 -2.6 0.2 79 1.2 WNW 22 32 12 17 995.0 995.0 2.0
03/03:00am 3.6 -2.9 0.3 79 1.3 WNW 24 33 13 18 994.9 994.9 2.0
03/02:30am 3.2 -2.6 0.1 80 1.2 WNW 20 28 11 15 995.0 995.0 2.0
03/02:00am 3.8 -3.5 0.1 77 1.4 WNW 28 43 15 23 994.7 994.7 2.0
03/01:30am 4.0 -2.5 0.2 76 1.4 WNW 24 39 13 21 994.6 994.6 2.0
03/01:00am 4.2 -3.1 0.2 75 1.5 NW 28 43 15 23 993.7 993.7 2.0
03/12:30am 4.2 -2.6 0.7 78 1.3 NW 26 43 14 23 994.0 994.0 2.0
03/12:00am 4.2 -0.8 1.1 80 1.2 W 17 28 9 15 994.9 994.9 2.0
 
Date/Time
EST
Temp
°C
App
Temp
°C
Dew
Point
Rel
Hum
%
Delta-T
°C
Wind Press
QNH
hPa
Press
MSL
hPa
Rain
since 9 am
mm
Dir
 
Spd
km/h
Gust
km/h
Spd
kts
Gust
kts
02/11:30pm 4.5 -1.2 0.8 77 1.4 NW 20 33 11 18 994.8 994.8 2.0
02/11:00pm 4.2 -2.6 0.9 79 1.3 NW 26 46 14 25 994.3 994.3 2.0
02/10:30pm 3.6 -2.0 1.3 85 0.9 NW 20 37 11 20 995.0 995.0 2.0
02/10:02pm 5.1 -2.1 0.5 72 1.8 NW 28 57 15 31 995.3 995.3 0.2

Other Formats:

Comma delimited format used in spreadsheet applications
http://www.bom.gov.au/fwo/IDT60801/IDT60801.94951.axf

JavaScript Object Notation format (JSON) in row-major order
http://www.bom.gov.au/fwo/IDT60801/IDT60801.94951.json